sensor_id;sensor_type;location;lat;lon;timestamp;temperature;humidity
20489;DHT22;10403;54.092;12.122;2023-11-21T00:00:04;7.90;99.90
20489;DHT22;10403;54.092;12.122;2023-11-21T00:02:37;7.90;99.90
20489;DHT22;10403;54.092;12.122;2023-11-21T00:05:08;7.90;99.90
20489;DHT22;10403;54.092;12.122;2023-11-21T00:07:37;7.90;99.90
20489;DHT22;10403;54.092;12.122;2023-11-21T00:10:06;7.90;99.90
20489;DHT22;10403;54.092;12.122;2023-11-21T00:12:35;7.90;99.90
20489;DHT22;10403;54.092;12.122;2023-11-21T00:15:03;7.90;99.90
20489;DHT22;10403;54.092;12.122;2023-11-21T00:17:38;7.90;99.90
20489;DHT22;10403;54.092;12.122;2023-11-21T00:20:06;7.90;99.90
20489;DHT22;10403;54.092;12.122;2023-11-21T00:22:35;7.90;99.90
20489;DHT22;10403;54.092;12.122;2023-11-21T00:25:03;7.90;99.90
20489;DHT22;10403;54.092;12.122;2023-11-21T00:27:31;7.90;99.90
20489;DHT22;10403;54.092;12.122;2023-11-21T00:29:58;7.90;99.90
20489;DHT22;10403;54.092;12.122;2023-11-21T00:32:25;7.90;99.90
20489;DHT22;10403;54.092;12.122;2023-11-21T00:34:52;7.80;99.90
20489;DHT22;10403;54.092;12.122;2023-11-21T00:37:21;7.90;99.90
20489;DHT22;10403;54.092;12.122;2023-11-21T00:39:48;7.90;99.90
20489;DHT22;10403;54.092;12.122;2023-11-21T00:42:16;7.90;99.90
20489;DHT22;10403;54.092;12.122;2023-11-21T00:44:43;7.90;99.90
20489;DHT22;10403;54.092;12.122;2023-11-21T00:47:10;7.90;99.90
20489;DHT22;10403;54.092;12.122;2023-11-21T00:49:37;7.90;99.90
20489;DHT22;10403;54.092;12.122;2023-11-21T00:52:06;7.90;99.90
20489;DHT22;10403;54.092;12.122;2023-11-21T00:54:34;7.80;99.90
20489;DHT22;10403;54.092;12.122;2023-11-21T00:57:01;7.80;99.90
20489;DHT22;10403;54.092;12.122;2023-11-21T00:59:28;7.80;99.90
20489;DHT22;10403;54.092;12.122;2023-11-21T01:01:56;7.80;99.90
20489;DHT22;10403;54.092;12.122;2023-11-21T01:04:23;7.70;99.90
20489;DHT22;10403;54.092;12.122;2023-11-21T01:06:50;7.80;99.90
20489;DHT22;10403;54.092;12.122;2023-11-21T01:09:17;7.70;99.90
20489;DHT22;10403;54.092;12.122;2023-11-21T01:11:45;7.70;99.90
20489;DHT22;10403;54.092;12.122;2023-11-21T01:14:13;7.60;99.90
20489;DHT22;10403;54.092;12.122;2023-11-21T01:16:40;7.60;99.90
20489;DHT22;10403;54.092;12.122;2023-11-21T01:19:08;7.60;99.90
20489;DHT22;10403;54.092;12.122;2023-11-21T01:21:36;7.60;99.90
20489;DHT22;10403;54.092;12.122;2023-11-21T01:24:04;7.60;99.90
20489;DHT22;10403;54.092;12.122;2023-11-21T01:26:34;7.60;99.90
20489;DHT22;10403;54.092;12.122;2023-11-21T01:29:01;7.50;99.90
20489;DHT22;10403;54.092;12.122;2023-11-21T01:31:28;7.50;99.90
20489;DHT22;10403;54.092;12.122;2023-11-21T01:33:57;7.60;99.90
20489;DHT22;10403;54.092;12.122;2023-11-21T01:36:32;7.60;99.90
20489;DHT22;10403;54.092;12.122;2023-11-21T01:39:00;7.60;99.90
20489;DHT22;10403;54.092;12.122;2023-11-21T01:41:28;7.60;99.90
20489;DHT22;10403;54.092;12.122;2023-11-21T01:43:56;7.60;99.90
20489;DHT22;10403;54.092;12.122;2023-11-21T01:46:23;7.60;99.90
20489;DHT22;10403;54.092;12.122;2023-11-21T01:48:52;7.60;99.90
20489;DHT22;10403;54.092;12.122;2023-11-21T01:51:20;7.60;99.90
20489;DHT22;10403;54.092;12.122;2023-11-21T01:53:47;7.60;99.90
20489;DHT22;10403;54.092;12.122;2023-11-21T01:56:14;7.60;99.90
20489;DHT22;10403;54.092;12.122;2023-11-21T01:58:42;7.60;99.90
20489;DHT22;10403;54.092;12.122;2023-11-21T02:01:10;7.60;99.90
20489;DHT22;10403;54.092;12.122;2023-11-21T02:03:37;7.60;99.90
20489;DHT22;10403;54.092;12.122;2023-11-21T02:06:05;7.50;99.90
20489;DHT22;10403;54.092;12.122;2023-11-21T02:08:33;7.60;99.90
20489;DHT22;10403;54.092;12.122;2023-11-21T02:11:00;7.50;99.90
20489;DHT22;10403;54.092;12.122;2023-11-21T02:13:27;7.50;99.90
20489;DHT22;10403;54.092;12.122;2023-11-21T02:15:55;7.50;99.90
20489;DHT22;10403;54.092;12.122;2023-11-21T02:18:22;7.50;99.90
20489;DHT22;10403;54.092;12.122;2023-11-21T02:20:50;7.50;99.90
20489;DHT22;10403;54.092;12.122;2023-11-21T02:23:18;7.50;99.90
20489;DHT22;10403;54.092;12.122;2023-11-21T02:25:45;7.60;99.90
20489;DHT22;10403;54.092;12.122;2023-11-21T02:28:14;7.50;99.90
20489;DHT22;10403;54.092;12.122;2023-11-21T02:30:43;7.50;99.90
20489;DHT22;10403;54.092;12.122;2023-11-21T02:33:10;7.50;99.90
20489;DHT22;10403;54.092;12.122;2023-11-21T02:35:39;7.50;99.90
20489;DHT22;10403;54.092;12.122;2023-11-21T02:38:06;7.50;99.90
20489;DHT22;10403;54.092;12.122;2023-11-21T02:40:33;7.50;99.90
20489;DHT22;10403;54.092;12.122;2023-11-21T02:43:01;7.50;99.90
20489;DHT22;10403;54.092;12.122;2023-11-21T02:54:07;7.50;99.90
20489;DHT22;10403;54.092;12.122;2023-11-21T02:56:35;7.50;99.90
20489;DHT22;10403;54.092;12.122;2023-11-21T02:59:02;7.50;99.90
20489;DHT22;10403;54.092;12.122;2023-11-21T03:01:30;7.50;99.90
20489;DHT22;10403;54.092;12.122;2023-11-21T03:03:58;7.50;99.90
20489;DHT22;10403;54.092;12.122;2023-11-21T03:06:25;7.50;99.90
20489;DHT22;10403;54.092;12.122;2023-11-21T03:08:52;7.50;99.90
20489;DHT22;10403;54.092;12.122;2023-11-21T03:11:19;7.50;99.90
20489;DHT22;10403;54.092;12.122;2023-11-21T03:13:47;7.50;99.90
20489;DHT22;10403;54.092;12.122;2023-11-21T03:16:15;7.50;99.90
20489;DHT22;10403;54.092;12.122;2023-11-21T03:18:42;7.50;99.90
20489;DHT22;10403;54.092;12.122;2023-11-21T03:21:11;7.50;99.90
20489;DHT22;10403;54.092;12.122;2023-11-21T03:23:39;7.50;99.90
20489;DHT22;10403;54.092;12.122;2023-11-21T03:26:06;7.50;99.90
20489;DHT22;10403;54.092;12.122;2023-11-21T03:28:39;7.50;99.90
20489;DHT22;10403;54.092;12.122;2023-11-21T03:31:07;7.40;99.90
20489;DHT22;10403;54.092;12.122;2023-11-21T03:33:36;7.40;99.90
20489;DHT22;10403;54.092;12.122;2023-11-21T03:36:03;7.40;99.90
20489;DHT22;10403;54.092;12.122;2023-11-21T03:38:32;7.30;99.90
20489;DHT22;10403;54.092;12.122;2023-11-21T03:41:17;7.30;99.90
20489;DHT22;10403;54.092;12.122;2023-11-21T03:43:44;7.30;99.90
20489;DHT22;10403;54.092;12.122;2023-11-21T03:46:11;7.30;99.90
20489;DHT22;10403;54.092;12.122;2023-11-21T03:48:39;7.30;99.90
20489;DHT22;10403;54.092;12.122;2023-11-21T03:51:07;7.30;99.90
20489;DHT22;10403;54.092;12.122;2023-11-21T03:53:34;7.20;99.90
20489;DHT22;10403;54.092;12.122;2023-11-21T03:56:02;7.30;99.90
20489;DHT22;10403;54.092;12.122;2023-11-21T03:58:30;7.30;99.90
20489;DHT22;10403;54.092;12.122;2023-11-21T04:00:58;7.30;99.90
20489;DHT22;10403;54.092;12.122;2023-11-21T04:03:27;7.20;99.90
20489;DHT22;10403;54.092;12.122;2023-11-21T04:05:54;7.30;99.90
20489;DHT22;10403;54.092;12.122;2023-11-21T04:08:22;7.20;99.90
20489;DHT22;10403;54.092;12.122;2023-11-21T04:10:49;7.20;99.90
20489;DHT22;10403;54.092;12.122;2023-11-21T04:13:16;7.20;99.90
20489;DHT22;10403;54.092;12.122;2023-11-21T04:15:44;7.20;99.90
20489;DHT22;10403;54.092;12.122;2023-11-21T04:18:11;7.20;99.90
20489;DHT22;10403;54.092;12.122;2023-11-21T04:20:39;7.20;99.90
20489;DHT22;10403;54.092;12.122;2023-11-21T04:23:06;7.10;99.90
20489;DHT22;10403;54.092;12.122;2023-11-21T04:25:33;7.20;99.90
20489;DHT22;10403;54.092;12.122;2023-11-21T04:28:00;7.20;99.90
20489;DHT22;10403;54.092;12.122;2023-11-21T04:30:27;7.20;99.90
20489;DHT22;10403;54.092;12.122;2023-11-21T04:32:55;7.20;99.90
20489;DHT22;10403;54.092;12.122;2023-11-21T04:35:22;7.10;99.90
20489;DHT22;10403;54.092;12.122;2023-11-21T04:37:49;7.20;99.90
20489;DHT22;10403;54.092;12.122;2023-11-21T04:40:18;7.10;99.90
20489;DHT22;10403;54.092;12.122;2023-11-21T04:42:47;7.10;99.90
20489;DHT22;10403;54.092;12.122;2023-11-21T04:45:15;7.20;99.90
20489;DHT22;10403;54.092;12.122;2023-11-21T04:47:42;7.20;99.90
20489;DHT22;10403;54.092;12.122;2023-11-21T04:50:10;7.20;99.90
20489;DHT22;10403;54.092;12.122;2023-11-21T04:52:37;7.20;99.90
20489;DHT22;10403;54.092;12.122;2023-11-21T04:55:05;7.20;99.90
20489;DHT22;10403;54.092;12.122;2023-11-21T04:57:37;7.20;99.90
20489;DHT22;10403;54.092;12.122;2023-11-21T05:00:04;7.10;99.90
20489;DHT22;10403;54.092;12.122;2023-11-21T05:02:33;7.10;99.90
20489;DHT22;10403;54.092;12.122;2023-11-21T05:05:03;7.10;99.90
20489;DHT22;10403;54.092;12.122;2023-11-21T05:07:33;7.10;99.90
20489;DHT22;10403;54.092;12.122;2023-11-21T05:10:04;7.10;99.90
20489;DHT22;10403;54.092;12.122;2023-11-21T05:12:38;7.10;99.90
20489;DHT22;10403;54.092;12.122;2023-11-21T05:15:07;7.10;99.90
20489;DHT22;10403;54.092;12.122;2023-11-21T05:17:38;7.10;99.90
20489;DHT22;10403;54.092;12.122;2023-11-21T05:20:11;7.10;99.90
20489;DHT22;10403;54.092;12.122;2023-11-21T05:22:41;7.00;99.90
20489;DHT22;10403;54.092;12.122;2023-11-21T05:25:09;7.10;99.90
20489;DHT22;10403;54.092;12.122;2023-11-21T05:27:38;7.10;99.90
20489;DHT22;10403;54.092;12.122;2023-11-21T05:30:05;7.10;99.90
20489;DHT22;10403;54.092;12.122;2023-11-21T05:32:33;7.10;99.90
20489;DHT22;10403;54.092;12.122;2023-11-21T05:35:01;7.00;99.90
20489;DHT22;10403;54.092;12.122;2023-11-21T05:37:28;7.10;99.90
20489;DHT22;10403;54.092;12.122;2023-11-21T05:39:56;7.10;99.90
20489;DHT22;10403;54.092;12.122;2023-11-21T05:42:23;7.10;99.90
20489;DHT22;10403;54.092;12.122;2023-11-21T05:44:50;7.10;99.90
20489;DHT22;10403;54.092;12.122;2023-11-21T05:47:17;7.10;99.90
20489;DHT22;10403;54.092;12.122;2023-11-21T05:49:45;7.10;99.90
20489;DHT22;10403;54.092;12.122;2023-11-21T05:52:17;7.20;99.90
20489;DHT22;10403;54.092;12.122;2023-11-21T05:54:45;6.30;99.90
20489;DHT22;10403;54.092;12.122;2023-11-21T05:57:12;7.20;99.90
20489;DHT22;10403;54.092;12.122;2023-11-21T05:59:39;7.10;99.90
20489;DHT22;10403;54.092;12.122;2023-11-21T06:02:07;7.20;99.90
20489;DHT22;10403;54.092;12.122;2023-11-21T06:04:34;7.10;99.90
20489;DHT22;10403;54.092;12.122;2023-11-21T06:07:02;7.20;99.90
20489;DHT22;10403;54.092;12.122;2023-11-21T06:09:29;7.10;99.90
20489;DHT22;10403;54.092;12.122;2023-11-21T06:11:56;7.00;99.90
20489;DHT22;10403;54.092;12.122;2023-11-21T06:14:23;7.00;99.90
20489;DHT22;10403;54.092;12.122;2023-11-21T06:16:50;7.00;99.90
20489;DHT22;10403;54.092;12.122;2023-11-21T06:19:19;7.00;99.90
20489;DHT22;10403;54.092;12.122;2023-11-21T06:21:46;7.00;99.90
20489;DHT22;10403;54.092;12.122;2023-11-21T06:24:14;7.00;99.90
20489;DHT22;10403;54.092;12.122;2023-11-21T06:26:42;6.90;99.90
20489;DHT22;10403;54.092;12.122;2023-11-21T06:29:11;6.90;99.90
20489;DHT22;10403;54.092;12.122;2023-11-21T06:31:38;6.90;99.90
20489;DHT22;10403;54.092;12.122;2023-11-21T06:34:07;6.90;99.90
20489;DHT22;10403;54.092;12.122;2023-11-21T06:36:36;6.90;99.90
20489;DHT22;10403;54.092;12.122;2023-11-21T06:39:04;6.90;99.90
20489;DHT22;10403;54.092;12.122;2023-11-21T06:41:34;6.80;99.90
20489;DHT22;10403;54.092;12.122;2023-11-21T06:44:01;6.80;99.90
20489;DHT22;10403;54.092;12.122;2023-11-21T06:46:29;6.80;99.90
20489;DHT22;10403;54.092;12.122;2023-11-21T06:48:57;6.80;99.90
20489;DHT22;10403;54.092;12.122;2023-11-21T06:51:24;6.80;99.90
20489;DHT22;10403;54.092;12.122;2023-11-21T06:53:51;6.80;99.90
20489;DHT22;10403;54.092;12.122;2023-11-21T06:56:19;6.70;99.90
20489;DHT22;10403;54.092;12.122;2023-11-21T06:58:46;6.70;99.90
20489;DHT22;10403;54.092;12.122;2023-11-21T07:01:14;6.80;99.90
20489;DHT22;10403;54.092;12.122;2023-11-21T07:03:42;6.80;99.90
20489;DHT22;10403;54.092;12.122;2023-11-21T07:06:09;6.80;99.90
20489;DHT22;10403;54.092;12.122;2023-11-21T07:08:37;6.80;99.90
20489;DHT22;10403;54.092;12.122;2023-11-21T07:11:04;6.80;99.90
20489;DHT22;10403;54.092;12.122;2023-11-21T07:13:32;6.80;99.90
20489;DHT22;10403;54.092;12.122;2023-11-21T07:15:59;6.80;99.90
20489;DHT22;10403;54.092;12.122;2023-11-21T07:18:26;6.80;99.90
20489;DHT22;10403;54.092;12.122;2023-11-21T07:20:54;6.80;99.90
20489;DHT22;10403;54.092;12.122;2023-11-21T07:23:21;6.90;99.90
20489;DHT22;10403;54.092;12.122;2023-11-21T07:25:49;6.90;99.90
20489;DHT22;10403;54.092;12.122;2023-11-21T07:28:17;6.90;99.90
20489;DHT22;10403;54.092;12.122;2023-11-21T07:30:44;6.90;99.90
20489;DHT22;10403;54.092;12.122;2023-11-21T07:33:11;6.90;99.90
20489;DHT22;10403;54.092;12.122;2023-11-21T07:35:39;7.00;99.90
20489;DHT22;10403;54.092;12.122;2023-11-21T07:38:06;7.00;99.90
20489;DHT22;10403;54.092;12.122;2023-11-21T07:40:33;7.00;99.90
20489;DHT22;10403;54.092;12.122;2023-11-21T07:43:01;6.90;99.90
20489;DHT22;10403;54.092;12.122;2023-11-21T07:45:28;7.00;99.90
20489;DHT22;10403;54.092;12.122;2023-11-21T07:47:56;7.00;99.90
20489;DHT22;10403;54.092;12.122;2023-11-21T07:50:23;7.00;99.90
20489;DHT22;10403;54.092;12.122;2023-11-21T07:52:51;7.00;99.90
20489;DHT22;10403;54.092;12.122;2023-11-21T07:55:18;7.00;99.90
20489;DHT22;10403;54.092;12.122;2023-11-21T07:57:45;7.00;99.90
20489;DHT22;10403;54.092;12.122;2023-11-21T08:00:13;7.10;99.90
20489;DHT22;10403;54.092;12.122;2023-11-21T08:02:42;7.10;99.90
20489;DHT22;10403;54.092;12.122;2023-11-21T08:05:10;7.10;99.90
20489;DHT22;10403;54.092;12.122;2023-11-21T08:07:50;7.10;99.90
20489;DHT22;10403;54.092;12.122;2023-11-21T08:10:18;7.10;99.90
20489;DHT22;10403;54.092;12.122;2023-11-21T08:12:46;7.10;99.90
20489;DHT22;10403;54.092;12.122;2023-11-21T08:15:24;7.10;99.90
20489;DHT22;10403;54.092;12.122;2023-11-21T08:17:52;7.10;99.90
20489;DHT22;10403;54.092;12.122;2023-11-21T08:20:19;7.20;99.90
20489;DHT22;10403;54.092;12.122;2023-11-21T08:22:47;7.10;99.90
20489;DHT22;10403;54.092;12.122;2023-11-21T08:25:15;7.00;99.90
20489;DHT22;10403;54.092;12.122;2023-11-21T08:27:46;7.10;99.90
20489;DHT22;10403;54.092;12.122;2023-11-21T08:30:14;7.10;99.90
20489;DHT22;10403;54.092;12.122;2023-11-21T08:32:44;7.10;99.90
20489;DHT22;10403;54.092;12.122;2023-11-21T08:35:11;7.10;99.90
20489;DHT22;10403;54.092;12.122;2023-11-21T08:37:39;7.10;99.90
20489;DHT22;10403;54.092;12.122;2023-11-21T08:40:07;7.20;99.90
20489;DHT22;10403;54.092;12.122;2023-11-21T08:42:36;7.10;99.90
20489;DHT22;10403;54.092;12.122;2023-11-21T08:45:05;7.10;99.90
20489;DHT22;10403;54.092;12.122;2023-11-21T08:47:35;7.10;99.90
20489;DHT22;10403;54.092;12.122;2023-11-21T08:50:03;7.20;99.90
20489;DHT22;10403;54.092;12.122;2023-11-21T08:52:34;7.20;99.90
20489;DHT22;10403;54.092;12.122;2023-11-21T08:55:01;7.20;99.90
20489;DHT22;10403;54.092;12.122;2023-11-21T08:57:38;7.30;99.90
20489;DHT22;10403;54.092;12.122;2023-11-21T09:00:08;7.30;99.90
20489;DHT22;10403;54.092;12.122;2023-11-21T09:02:38;7.30;99.90
20489;DHT22;10403;54.092;12.122;2023-11-21T09:05:13;7.40;99.90
20489;DHT22;10403;54.092;12.122;2023-11-21T09:07:42;7.40;99.90
20489;DHT22;10403;54.092;12.122;2023-11-21T09:10:10;7.40;99.90
20489;DHT22;10403;54.092;12.122;2023-11-21T09:12:37;7.50;99.90
20489;DHT22;10403;54.092;12.122;2023-11-21T09:15:06;7.50;99.90
20489;DHT22;10403;54.092;12.122;2023-11-21T09:17:34;7.60;99.90
20489;DHT22;10403;54.092;12.122;2023-11-21T09:20:02;7.60;99.90
20489;DHT22;10403;54.092;12.122;2023-11-21T09:22:37;7.60;99.90
20489;DHT22;10403;54.092;12.122;2023-11-21T09:25:05;7.60;99.90
20489;DHT22;10403;54.092;12.122;2023-11-21T09:27:32;7.60;99.90
20489;DHT22;10403;54.092;12.122;2023-11-21T09:29:59;7.60;99.90
20489;DHT22;10403;54.092;12.122;2023-11-21T09:32:27;7.60;99.90
20489;DHT22;10403;54.092;12.122;2023-11-21T09:34:55;7.60;99.90
20489;DHT22;10403;54.092;12.122;2023-11-21T09:37:25;7.60;99.90
20489;DHT22;10403;54.092;12.122;2023-11-21T09:39:54;7.60;99.90
20489;DHT22;10403;54.092;12.122;2023-11-21T09:42:39;7.60;99.90
20489;DHT22;10403;54.092;12.122;2023-11-21T09:45:48;7.60;99.90
20489;DHT22;10403;54.092;12.122;2023-11-21T09:48:09;7.60;99.90
20489;DHT22;10403;54.092;12.122;2023-11-21T09:50:41;7.60;99.90
20489;DHT22;10403;54.092;12.122;2023-11-21T09:53:20;7.70;99.90
20489;DHT22;10403;54.092;12.122;2023-11-21T09:55:51;7.60;99.90
20489;DHT22;10403;54.092;12.122;2023-11-21T09:58:20;7.60;99.90
20489;DHT22;10403;54.092;12.122;2023-11-21T10:00:53;7.60;99.90
20489;DHT22;10403;54.092;12.122;2023-11-21T10:03:22;7.60;99.90
20489;DHT22;10403;54.092;12.122;2023-11-21T10:05:50;7.50;99.90
20489;DHT22;10403;54.092;12.122;2023-11-21T10:08:22;7.50;99.90
20489;DHT22;10403;54.092;12.122;2023-11-21T10:10:53;7.60;99.90
20489;DHT22;10403;54.092;12.122;2023-11-21T10:13:21;7.50;99.90
20489;DHT22;10403;54.092;12.122;2023-11-21T10:15:51;7.50;99.90
20489;DHT22;10403;54.092;12.122;2023-11-21T10:18:19;7.50;99.90
20489;DHT22;10403;54.092;12.122;2023-11-21T10:20:49;7.50;99.90
20489;DHT22;10403;54.092;12.122;2023-11-21T10:23:21;7.50;99.90
20489;DHT22;10403;54.092;12.122;2023-11-21T10:25:52;7.50;99.90
20489;DHT22;10403;54.092;12.122;2023-11-21T10:28:20;7.50;99.90
20489;DHT22;10403;54.092;12.122;2023-11-21T10:30:48;7.50;99.90
20489;DHT22;10403;54.092;12.122;2023-11-21T10:33:16;7.50;99.90
20489;DHT22;10403;54.092;12.122;2023-11-21T10:35:48;7.50;99.90
20489;DHT22;10403;54.092;12.122;2023-11-21T10:38:18;7.60;99.90
20489;DHT22;10403;54.092;12.122;2023-11-21T10:40:48;7.60;99.90
20489;DHT22;10403;54.092;12.122;2023-11-21T10:43:17;7.60;99.90
20489;DHT22;10403;54.092;12.122;2023-11-21T10:45:45;7.60;99.90
20489;DHT22;10403;54.092;12.122;2023-11-21T10:48:14;7.70;99.90
20489;DHT22;10403;54.092;12.122;2023-11-21T10:50:46;7.60;99.90
20489;DHT22;10403;54.092;12.122;2023-11-21T10:53:14;7.70;99.90
20489;DHT22;10403;54.092;12.122;2023-11-21T10:55:42;7.70;99.90
20489;DHT22;10403;54.092;12.122;2023-11-21T10:58:14;7.60;99.90
20489;DHT22;10403;54.092;12.122;2023-11-21T11:00:41;7.70;99.90
20489;DHT22;10403;54.092;12.122;2023-11-21T11:03:12;7.70;99.90
20489;DHT22;10403;54.092;12.122;2023-11-21T11:05:44;7.70;99.90
20489;DHT22;10403;54.092;12.122;2023-11-21T11:08:21;7.70;99.90
20489;DHT22;10403;54.092;12.122;2023-11-21T11:10:54;7.70;99.90
20489;DHT22;10403;54.092;12.122;2023-11-21T11:13:22;7.70;99.90
20489;DHT22;10403;54.092;12.122;2023-11-21T11:15:51;7.60;99.90
20489;DHT22;10403;54.092;12.122;2023-11-21T11:18:28;7.50;99.90
20489;DHT22;10403;54.092;12.122;2023-11-21T11:21:11;7.50;99.90
20489;DHT22;10403;54.092;12.122;2023-11-21T11:24:15;7.50;99.90
20489;DHT22;10403;54.092;12.122;2023-11-21T11:26:55;7.50;99.90
20489;DHT22;10403;54.092;12.122;2023-11-21T11:29:51;7.50;99.90
20489;DHT22;10403;54.092;12.122;2023-11-21T11:35:10;7.50;99.90
20489;DHT22;10403;54.092;12.122;2023-11-21T11:37:53;7.50;99.90
20489;DHT22;10403;54.092;12.122;2023-11-21T11:40:22;7.50;99.90
20489;DHT22;10403;54.092;12.122;2023-11-21T11:42:58;7.50;99.90
20489;DHT22;10403;54.092;12.122;2023-11-21T11:45:35;7.50;99.90
20489;DHT22;10403;54.092;12.122;2023-11-21T11:48:03;7.60;99.90
20489;DHT22;10403;54.092;12.122;2023-11-21T11:50:32;7.60;99.90
20489;DHT22;10403;54.092;12.122;2023-11-21T11:53:15;7.60;99.90
20489;DHT22;10403;54.092;12.122;2023-11-21T11:55:43;7.60;99.90
20489;DHT22;10403;54.092;12.122;2023-11-21T11:58:10;7.60;99.90
20489;DHT22;10403;54.092;12.122;2023-11-21T12:00:39;7.60;99.90
20489;DHT22;10403;54.092;12.122;2023-11-21T12:03:09;7.60;99.90
20489;DHT22;10403;54.092;12.122;2023-11-21T12:05:37;7.60;99.90
20489;DHT22;10403;54.092;12.122;2023-11-21T12:08:08;7.60;99.90
20489;DHT22;10403;54.092;12.122;2023-11-21T12:10:38;7.50;99.90
20489;DHT22;10403;54.092;12.122;2023-11-21T12:13:08;7.40;99.90
20489;DHT22;10403;54.092;12.122;2023-11-21T12:15:37;7.40;99.90
20489;DHT22;10403;54.092;12.122;2023-11-21T12:18:07;7.30;99.90
20489;DHT22;10403;54.092;12.122;2023-11-21T12:20:35;7.30;99.90
20489;DHT22;10403;54.092;12.122;2023-11-21T12:23:07;7.30;99.90
20489;DHT22;10403;54.092;12.122;2023-11-21T12:25:36;7.30;99.90
20489;DHT22;10403;54.092;12.122;2023-11-21T12:28:04;7.40;99.90
20489;DHT22;10403;54.092;12.122;2023-11-21T12:30:36;7.40;99.90
20489;DHT22;10403;54.092;12.122;2023-11-21T12:33:05;7.30;99.90
20489;DHT22;10403;54.092;12.122;2023-11-21T12:35:37;7.30;99.90
20489;DHT22;10403;54.092;12.122;2023-11-21T12:38:05;7.30;99.90
20489;DHT22;10403;54.092;12.122;2023-11-21T12:40:32;7.30;99.90
20489;DHT22;10403;54.092;12.122;2023-11-21T12:43:00;7.30;99.90
20489;DHT22;10403;54.092;12.122;2023-11-21T12:45:30;7.20;99.90
20489;DHT22;10403;54.092;12.122;2023-11-21T12:48:05;7.30;99.90
20489;DHT22;10403;54.092;12.122;2023-11-21T12:50:38;7.20;99.90
20489;DHT22;10403;54.092;12.122;2023-11-21T12:53:08;7.20;99.90
20489;DHT22;10403;54.092;12.122;2023-11-21T12:55:37;7.30;99.90
20489;DHT22;10403;54.092;12.122;2023-11-21T12:58:08;7.20;99.90
20489;DHT22;10403;54.092;12.122;2023-11-21T13:00:40;7.20;99.90
20489;DHT22;10403;54.092;12.122;2023-11-21T13:03:11;7.20;99.90
20489;DHT22;10403;54.092;12.122;2023-11-21T13:05:46;7.20;99.90
20489;DHT22;10403;54.092;12.122;2023-11-21T13:08:22;7.20;99.90
20489;DHT22;10403;54.092;12.122;2023-11-21T13:10:53;7.10;99.90
20489;DHT22;10403;54.092;12.122;2023-11-21T13:13:27;7.10;99.90
20489;DHT22;10403;54.092;12.122;2023-11-21T13:16:00;7.20;99.90
20489;DHT22;10403;54.092;12.122;2023-11-21T13:18:32;7.10;99.90
20489;DHT22;10403;54.092;12.122;2023-11-21T13:21:02;7.10;99.90
20489;DHT22;10403;54.092;12.122;2023-11-21T13:23:37;7.20;99.90
20489;DHT22;10403;54.092;12.122;2023-11-21T13:26:05;7.10;99.90
20489;DHT22;10403;54.092;12.122;2023-11-21T13:28:35;7.10;99.90
20489;DHT22;10403;54.092;12.122;2023-11-21T13:31:06;7.00;99.90
20489;DHT22;10403;54.092;12.122;2023-11-21T13:33:38;7.00;99.90
20489;DHT22;10403;54.092;12.122;2023-11-21T13:36:08;7.00;99.90
20489;DHT22;10403;54.092;12.122;2023-11-21T13:38:37;7.00;99.90
20489;DHT22;10403;54.092;12.122;2023-11-21T13:41:09;7.00;99.90
20489;DHT22;10403;54.092;12.122;2023-11-21T13:43:38;7.00;99.90
20489;DHT22;10403;54.092;12.122;2023-11-21T13:46:08;6.90;99.90
20489;DHT22;10403;54.092;12.122;2023-11-21T13:48:48;6.90;99.90
20489;DHT22;10403;54.092;12.122;2023-11-21T13:51:23;7.00;99.90
20489;DHT22;10403;54.092;12.122;2023-11-21T13:54:03;6.90;99.90
20489;DHT22;10403;54.092;12.122;2023-11-21T13:56:36;6.90;99.90
20489;DHT22;10403;54.092;12.122;2023-11-21T13:59:05;6.90;99.90
20489;DHT22;10403;54.092;12.122;2023-11-21T14:01:56;6.80;99.90
20489;DHT22;10403;54.092;12.122;2023-11-21T14:04:39;6.80;99.90
20489;DHT22;10403;54.092;12.122;2023-11-21T14:07:16;6.80;99.90
20489;DHT22;10403;54.092;12.122;2023-11-21T14:09:59;6.80;99.90
20489;DHT22;10403;54.092;12.122;2023-11-21T14:12:26;6.80;99.90
20489;DHT22;10403;54.092;12.122;2023-11-21T14:14:53;6.80;99.90
20489;DHT22;10403;54.092;12.122;2023-11-21T14:17:22;6.80;99.90
20489;DHT22;10403;54.092;12.122;2023-11-21T14:19:51;6.80;99.90
20489;DHT22;10403;54.092;12.122;2023-11-21T14:22:19;6.80;99.90
20489;DHT22;10403;54.092;12.122;2023-11-21T14:24:47;6.80;99.90
20489;DHT22;10403;54.092;12.122;2023-11-21T14:27:17;6.80;99.90
20489;DHT22;10403;54.092;12.122;2023-11-21T14:29:44;6.80;99.90
20489;DHT22;10403;54.092;12.122;2023-11-21T14:32:12;6.80;99.90
20489;DHT22;10403;54.092;12.122;2023-11-21T14:34:41;6.70;99.90
20489;DHT22;10403;54.092;12.122;2023-11-21T14:37:13;6.80;99.90
20489;DHT22;10403;54.092;12.122;2023-11-21T14:39:41;6.80;99.90
20489;DHT22;10403;54.092;12.122;2023-11-21T14:42:11;6.70;99.90
20489;DHT22;10403;54.092;12.122;2023-11-21T14:44:42;6.70;99.90
20489;DHT22;10403;54.092;12.122;2023-11-21T14:47:09;6.70;99.90
20489;DHT22;10403;54.092;12.122;2023-11-21T14:49:43;6.60;99.90
20489;DHT22;10403;54.092;12.122;2023-11-21T14:52:20;6.60;99.90
20489;DHT22;10403;54.092;12.122;2023-11-21T14:55:14;6.60;99.90
20489;DHT22;10403;54.092;12.122;2023-11-21T14:57:52;6.60;99.90
20489;DHT22;10403;54.092;12.122;2023-11-21T15:00:21;6.60;99.90
20489;DHT22;10403;54.092;12.122;2023-11-21T15:03:01;6.50;99.90
20489;DHT22;10403;54.092;12.122;2023-11-21T15:05:31;6.50;99.90
20489;DHT22;10403;54.092;12.122;2023-11-21T15:07:58;6.40;99.90
20489;DHT22;10403;54.092;12.122;2023-11-21T15:10:41;6.40;99.90
20489;DHT22;10403;54.092;12.122;2023-11-21T15:13:16;6.40;99.90
20489;DHT22;10403;54.092;12.122;2023-11-21T15:15:44;6.40;99.90
20489;DHT22;10403;54.092;12.122;2023-11-21T15:18:11;6.30;99.90
20489;DHT22;10403;54.092;12.122;2023-11-21T15:20:40;6.40;99.90
20489;DHT22;10403;54.092;12.122;2023-11-21T15:23:08;6.40;99.90
20489;DHT22;10403;54.092;12.122;2023-11-21T15:25:36;6.40;99.90
20489;DHT22;10403;54.092;12.122;2023-11-21T15:28:04;6.40;99.90
20489;DHT22;10403;54.092;12.122;2023-11-21T15:30:32;6.30;99.90
20489;DHT22;10403;54.092;12.122;2023-11-21T15:33:01;6.30;99.90
20489;DHT22;10403;54.092;12.122;2023-11-21T15:35:30;6.30;99.90
20489;DHT22;10403;54.092;12.122;2023-11-21T15:37:59;6.40;99.90
20489;DHT22;10403;54.092;12.122;2023-11-21T15:40:28;6.40;99.90
20489;DHT22;10403;54.092;12.122;2023-11-21T15:42:55;6.40;99.90
20489;DHT22;10403;54.092;12.122;2023-11-21T15:45:23;6.40;99.90
20489;DHT22;10403;54.092;12.122;2023-11-21T15:47:53;6.40;99.90
20489;DHT22;10403;54.092;12.122;2023-11-21T15:50:20;6.40;99.90
20489;DHT22;10403;54.092;12.122;2023-11-21T15:52:48;6.40;99.90
20489;DHT22;10403;54.092;12.122;2023-11-21T15:55:26;6.40;99.90